createdAt,value
2023-04-03T00:01:04.912Z,95215.78
2023-04-03T00:03:31.616Z,95206.28
2023-04-03T00:05:58.857Z,95201.72
2023-04-03T00:08:25.968Z,95216.16
2023-04-03T00:10:53.079Z,95199.13
2023-04-03T00:13:19.896Z,95210.84
2023-04-03T00:15:46.677Z,95212.25
2023-04-03T00:18:13.430Z,95170.06
2023-04-03T00:20:40.946Z,95199.13
2023-04-03T00:23:08.008Z,95181.88
2023-04-03T00:25:35.837Z,95200.13
2023-04-03T00:28:03.323Z,95217.13
2023-04-03T00:30:30.368Z,95215.88
2023-04-03T00:32:57.718Z,95220.28
2023-04-03T00:35:26.000Z,95209.88
2023-04-03T00:37:54.723Z,95217.56
2023-04-03T00:40:25.181Z,95224.13
2023-04-03T00:42:59.296Z,95220.22
2023-04-03T00:45:47.802Z,95196.81
2023-04-03T00:48:22.701Z,95208.56
2023-04-03T00:50:50.935Z,95198.94
2023-04-03T00:53:22.555Z,95207.34
2023-04-03T00:55:51.081Z,95207.53
2023-04-03T00:58:22.411Z,95208.47
2023-04-03T01:00:58.528Z,95196.75
2023-04-03T01:03:26.401Z,95202.78
2023-04-03T01:05:55.083Z,95202.47
2023-04-03T01:08:21.846Z,95210.72
2023-04-03T01:10:49.750Z,95208.00
2023-04-03T01:13:43.777Z,95231.59
2023-04-03T01:16:12.320Z,95217.44
2023-04-03T01:18:41.579Z,95211.50
2023-04-03T01:21:32.208Z,95250.44
2023-04-03T01:24:17.320Z,95249.72
2023-04-03T01:26:44.816Z,95202.69
2023-04-03T01:29:12.542Z,95213.97
2023-04-03T01:31:57.623Z,95229.38
2023-04-03T01:34:25.647Z,95217.38
2023-04-03T01:36:53.533Z,95218.81
2023-04-03T01:39:22.036Z,95240.78
2023-04-03T01:41:50.186Z,95227.50
2023-04-03T01:44:43.408Z,95226.53
2023-04-03T01:47:10.382Z,95227.94
2023-04-03T01:49:39.371Z,95245.91
2023-04-03T01:52:06.812Z,95252.09
2023-04-03T01:54:33.921Z,95214.19
2023-04-03T01:57:01.116Z,95247.84
2023-04-03T01:59:28.032Z,95207.59
2023-04-03T02:01:55.123Z,95233.13
2023-04-03T02:04:22.415Z,95225.03
2023-04-03T02:06:49.467Z,95211.78
2023-04-03T02:09:16.380Z,95198.78
2023-04-03T02:11:43.086Z,95225.53
2023-04-03T02:14:10.875Z,95218.41
2023-04-03T02:16:37.829Z,95219.16
2023-04-03T02:19:04.711Z,95202.56
2023-04-03T02:21:31.651Z,95211.47
2023-04-03T02:23:58.385Z,95198.50
2023-04-03T02:26:26.168Z,95180.75
2023-04-03T02:28:53.525Z,95218.53
2023-04-03T02:31:20.466Z,95193.50
2023-04-03T02:33:47.743Z,95236.47
2023-04-03T02:36:16.286Z,95194.03
2023-04-03T02:38:47.675Z,95197.84
2023-04-03T02:41:14.447Z,95229.00
2023-04-03T02:43:41.367Z,95188.13
2023-04-03T02:46:09.098Z,95245.78
2023-04-03T02:48:36.633Z,95221.53
2023-04-03T02:51:03.462Z,95217.84
2023-04-03T02:53:30.384Z,95215.88
2023-04-03T02:55:58.673Z,95209.69
2023-04-03T02:58:25.485Z,95199.09
2023-04-03T03:00:55.107Z,95204.06
2023-04-03T03:03:22.203Z,95186.00
2023-04-03T03:05:49.211Z,95207.06
2023-04-03T03:08:16.317Z,95236.66
2023-04-03T03:10:43.565Z,95230.38
2023-04-03T03:13:10.311Z,95189.34
2023-04-03T03:15:37.309Z,95187.69
2023-04-03T03:18:04.347Z,95246.03
2023-04-03T03:20:31.055Z,95231.34
2023-04-03T03:22:58.880Z,95230.25
2023-04-03T03:25:25.826Z,95197.75
2023-04-03T03:27:52.798Z,95237.81
2023-04-03T03:30:19.577Z,95265.91
2023-04-03T03:32:46.888Z,95216.88
2023-04-03T03:35:14.223Z,95234.59
2023-04-03T03:37:41.147Z,95220.38
2023-04-03T03:40:09.074Z,95195.75
2023-04-03T03:42:37.063Z,95213.56
2023-04-03T03:45:04.932Z,95204.63
2023-04-03T03:47:32.086Z,95209.19
2023-04-03T03:49:59.328Z,95210.59
2023-04-03T03:52:27.714Z,95202.63
2023-04-03T03:54:54.889Z,95211.25
2023-04-03T03:57:21.845Z,95215.09
2023-04-03T03:59:49.907Z,95211.94
2023-04-03T04:02:18.706Z,95244.19
2023-04-03T04:04:45.593Z,95221.84
2023-04-03T04:07:14.221Z,95221.50
2023-04-03T04:09:41.657Z,95227.38
2023-04-03T04:12:09.635Z,95235.41
2023-04-03T04:14:36.930Z,95211.53
2023-04-03T04:17:04.694Z,95214.84
2023-04-03T04:19:31.625Z,95202.19
2023-04-03T04:21:59.171Z,95247.63
2023-04-03T04:24:26.996Z,95200.28
2023-04-03T04:26:56.134Z,95205.19
2023-04-03T04:29:24.125Z,95240.19
2023-04-03T04:31:52.134Z,95229.53
2023-04-03T04:34:18.932Z,95240.19
2023-04-03T04:36:45.942Z,95210.66
2023-04-03T04:39:13.312Z,95217.94
2023-04-03T04:41:40.860Z,95232.69
2023-04-03T04:44:09.400Z,95200.59
2023-04-03T04:46:36.739Z,95183.06
2023-04-03T04:49:05.294Z,95211.28
2023-04-03T04:51:41.177Z,95229.34
2023-04-03T04:54:16.956Z,95242.00
2023-04-03T04:56:44.935Z,95225.03
2023-04-03T04:59:12.069Z,95231.09
2023-04-03T05:01:39.904Z,95209.19
2023-04-03T05:04:16.198Z,95211.16
2023-04-03T05:06:45.605Z,95237.44
2023-04-03T05:09:17.105Z,95208.75
2023-04-03T05:11:46.076Z,95192.22
2023-04-03T05:14:15.286Z,95240.72
2023-04-03T05:16:42.240Z,95223.66
2023-04-03T05:19:09.590Z,95225.44
2023-04-03T05:21:37.710Z,95218.81
2023-04-03T05:24:10.437Z,95224.53
2023-04-03T05:26:40.396Z,95247.75
2023-04-03T05:29:08.046Z,95251.09
2023-04-03T05:31:35.420Z,95241.22
2023-04-03T05:34:02.316Z,95227.13
2023-04-03T05:36:31.238Z,95232.75
2023-04-03T05:39:03.352Z,95257.50
2023-04-03T05:41:30.487Z,95228.75
2023-04-03T05:43:57.278Z,95243.59
2023-04-03T05:46:25.628Z,95257.19
2023-04-03T05:48:55.617Z,95215.00
2023-04-03T05:51:33.717Z,95237.88
2023-04-03T05:54:17.318Z,95255.81
2023-04-03T05:56:45.174Z,95242.44
2023-04-03T05:59:12.171Z,95246.19
2023-04-03T06:01:39.837Z,95262.84
2023-04-03T06:04:06.747Z,95260.25
2023-04-03T06:06:54.974Z,95240.81
2023-04-03T06:09:24.269Z,95278.09
2023-04-03T06:11:51.406Z,95237.31
2023-04-03T06:14:18.517Z,95278.50
2023-04-03T06:16:46.083Z,95279.16
2023-04-03T06:19:13.382Z,95295.44
2023-04-03T06:21:46.684Z,95216.38
2023-04-03T06:24:16.727Z,95249.69
2023-04-03T06:26:44.473Z,95259.88
2023-04-03T06:29:11.283Z,95282.50
2023-04-03T06:31:38.195Z,95302.91
2023-04-03T06:34:06.788Z,95255.94
2023-04-03T06:36:35.659Z,95251.69
2023-04-03T06:39:04.056Z,95284.63
2023-04-03T06:41:31.594Z,95272.78
2023-04-03T06:43:59.306Z,95279.06
2023-04-03T06:46:27.844Z,95259.91
2023-04-03T06:48:55.028Z,95266.81
2023-04-03T06:51:29.497Z,95266.06
2023-04-03T06:53:59.556Z,95290.59
2023-04-03T06:56:27.855Z,95282.00
2023-04-03T06:58:58.827Z,95262.91
2023-04-03T07:01:31.061Z,95280.72
2023-04-03T07:03:58.025Z,95261.16
2023-04-03T07:06:28.080Z,95267.84
2023-04-03T07:08:56.307Z,95285.47
2023-04-03T07:11:23.584Z,95298.34
2023-04-03T07:13:51.389Z,95297.47
2023-04-03T07:16:18.444Z,95302.69
2023-04-03T07:18:46.649Z,95307.72
2023-04-03T07:21:14.123Z,95295.63
2023-04-03T07:23:41.540Z,95324.13
2023-04-03T07:26:09.110Z,95298.97
2023-04-03T07:28:37.691Z,95304.97
2023-04-03T07:31:09.513Z,95271.66
2023-04-03T07:33:38.284Z,95322.09
2023-04-03T07:36:07.896Z,95294.22
2023-04-03T07:38:36.502Z,95293.09
2023-04-03T07:41:04.560Z,95331.00
2023-04-03T07:43:31.509Z,95339.31
2023-04-03T07:45:58.262Z,95312.88
2023-04-03T07:48:27.487Z,95336.53
2023-04-03T07:50:54.365Z,95283.63
2023-04-03T07:53:21.118Z,95347.47
2023-04-03T07:55:48.523Z,95296.28
2023-04-03T07:58:18.122Z,95305.91
2023-04-03T08:00:46.256Z,95308.66
2023-04-03T08:03:13.956Z,95273.59
2023-04-03T08:05:43.223Z,95297.00
2023-04-03T08:08:12.808Z,95352.59
2023-04-03T08:10:39.580Z,95345.50
2023-04-03T08:13:07.163Z,95314.81
2023-04-03T08:15:34.125Z,95294.03
2023-04-03T08:18:02.046Z,95281.50
2023-04-03T08:20:29.728Z,95363.72
2023-04-03T08:22:57.115Z,95309.50
2023-04-03T08:25:23.823Z,95318.97
2023-04-03T08:27:50.713Z,95354.56
2023-04-03T08:30:17.674Z,95320.09
2023-04-03T08:32:45.702Z,95353.06
2023-04-03T08:35:13.174Z,95338.72
2023-04-03T08:37:41.389Z,95329.31
2023-04-03T08:40:14.358Z,95363.59
2023-04-03T08:43:09.602Z,95364.56
2023-04-03T08:45:46.712Z,95327.78
2023-04-03T08:48:20.617Z,95334.22
2023-04-03T08:50:53.040Z,95373.44
2023-04-03T08:53:22.952Z,95366.69
2023-04-03T08:55:51.454Z,95315.09
2023-04-03T08:58:31.086Z,95312.78
2023-04-03T09:01:06.845Z,95343.28
2023-04-03T09:03:39.216Z,95325.25
2023-04-03T09:06:11.971Z,95345.75
2023-04-03T09:09:02.190Z,95354.41
2023-04-03T09:11:54.914Z,95329.97
2023-04-03T09:14:33.468Z,95337.16
2023-04-03T09:17:04.363Z,95296.22
2023-04-03T09:20:10.955Z,95356.34
2023-04-03T09:22:46.181Z,95353.94
2023-04-03T09:25:23.276Z,95352.03
2023-04-03T09:27:52.257Z,95359.13
2023-04-03T09:30:22.581Z,95352.63
2023-04-03T09:32:51.796Z,95384.50
2023-04-03T09:35:32.742Z,95359.44
2023-04-03T09:38:14.250Z,95341.84
2023-04-03T09:41:05.493Z,95346.88
2023-04-03T09:43:39.962Z,95331.91
2023-04-03T09:46:31.459Z,95338.91
2023-04-03T09:49:08.852Z,95303.84
2023-04-03T09:51:36.091Z,95352.31
2023-04-03T09:54:28.328Z,95380.41
2023-04-03T09:56:56.854Z,95338.22
2023-04-03T09:59:23.928Z,95326.22
2023-04-03T10:02:46.744Z,95326.06
2023-04-03T10:05:38.178Z,95358.13
2023-04-03T10:08:20.902Z,95371.97
2023-04-03T10:10:50.281Z,95314.06
2023-04-03T10:13:24.453Z,95287.00
2023-04-03T10:16:08.042Z,95367.84
2023-04-03T10:18:45.811Z,95321.03
2023-04-03T10:21:28.487Z,95327.19
2023-04-03T10:24:16.480Z,95352.22
2023-04-03T10:27:00.170Z,95345.31
2023-04-03T10:30:04.854Z,95344.63
2023-04-03T10:32:32.836Z,95330.47
2023-04-03T10:35:14.876Z,95336.34
2023-04-03T10:37:57.058Z,95354.41
2023-04-03T10:40:27.917Z,95326.84
2023-04-03T10:43:18.867Z,95337.97
2023-04-03T10:46:07.353Z,95348.03
2023-04-03T10:48:36.787Z,95316.72
2023-04-03T10:51:09.398Z,95327.06
2023-04-03T10:53:46.056Z,95342.63
2023-04-03T10:56:23.005Z,95307.66
2023-04-03T10:58:58.903Z,95339.91
2023-04-03T11:01:32.976Z,95340.97
2023-04-03T11:04:02.982Z,95331.88
2023-04-03T11:06:39.758Z,95304.19
2023-04-03T11:09:20.956Z,95360.28
2023-04-03T11:11:50.319Z,95366.41
2023-04-03T11:14:33.257Z,95349.13
2023-04-03T11:17:39.280Z,95357.63
2023-04-03T11:20:18.460Z,95376.06
2023-04-03T11:22:55.787Z,95350.16
2023-04-03T11:25:26.102Z,95351.00
2023-04-03T11:27:55.799Z,95346.50
2023-04-03T11:30:58.266Z,95393.50
2023-04-03T11:33:32.338Z,95395.38
2023-04-03T11:36:12.448Z,95350.16
2023-04-03T11:38:48.578Z,95320.88
2023-04-03T11:41:17.471Z,95312.41
2023-04-03T11:44:27.404Z,95328.69
2023-04-03T11:46:57.654Z,95330.25
2023-04-03T11:50:00.867Z,95343.56
2023-04-03T11:52:43.703Z,95319.81
2023-04-03T11:55:23.187Z,95316.41
2023-04-03T11:58:02.505Z,95320.38
2023-04-03T12:00:52.522Z,95296.72
2023-04-03T12:03:25.901Z,95295.16
2023-04-03T12:05:58.340Z,95301.53
2023-04-03T12:08:25.331Z,95296.72
2023-04-03T12:11:31.166Z,95301.94
2023-04-03T12:13:58.033Z,95314.16
2023-04-03T12:16:34.054Z,95325.38
2023-04-03T12:19:04.670Z,95317.00
2023-04-03T12:21:37.544Z,95319.03
2023-04-03T12:24:10.827Z,95344.38
2023-04-03T12:26:59.715Z,95298.16
2023-04-03T12:29:34.777Z,95327.78
2023-04-03T12:32:15.815Z,95313.66
2023-04-03T12:34:53.890Z,95301.88
2023-04-03T12:37:31.397Z,95327.03
2023-04-03T12:40:39.681Z,95300.25
2023-04-03T12:43:19.073Z,95358.66
2023-04-03T12:46:11.023Z,95339.53
2023-04-03T12:48:54.679Z,95325.50
2023-04-03T12:51:30.596Z,95325.16
2023-04-03T12:54:24.038Z,95303.19
2023-04-03T12:56:51.638Z,95325.16
2023-04-03T12:59:22.777Z,95307.66
2023-04-03T13:02:03.085Z,95355.94
2023-04-03T13:04:32.496Z,95361.81
2023-04-03T13:07:00.192Z,95323.34
2023-04-03T13:09:29.757Z,95307.97
2023-04-03T13:12:04.621Z,95337.63
2023-04-03T13:14:32.187Z,95332.75
2023-04-03T13:17:12.559Z,95349.06
2023-04-03T13:19:40.664Z,95302.38
2023-04-03T13:22:26.546Z,95332.38
2023-04-03T13:24:56.282Z,95335.72
2023-04-03T13:27:23.905Z,95345.06
2023-04-03T13:29:55.262Z,95348.28
2023-04-03T13:32:25.423Z,95330.06
2023-04-03T13:34:53.011Z,95315.56
2023-04-03T13:37:28.909Z,95285.09
2023-04-03T13:40:11.908Z,95261.25
2023-04-03T13:42:43.970Z,95310.44
2023-04-03T13:45:21.108Z,95281.03
2023-04-03T13:47:49.966Z,95279.50
2023-04-03T13:50:25.388Z,95284.44
2023-04-03T13:52:55.226Z,95283.09
2023-04-03T13:55:29.929Z,95302.34
2023-04-03T13:58:25.355Z,95300.50
2023-04-03T14:00:56.501Z,95335.59
2023-04-03T14:03:27.239Z,95332.34
2023-04-03T14:05:55.043Z,95307.13
2023-04-03T14:08:29.422Z,95286.69
2023-04-03T14:11:03.367Z,95289.06
2023-04-03T14:13:31.308Z,95360.91
2023-04-03T14:16:00.427Z,95312.97
2023-04-03T14:18:33.140Z,95299.69
2023-04-03T14:21:00.192Z,95299.00
2023-04-03T14:23:26.955Z,95302.78
2023-04-03T14:25:54.361Z,95339.63
2023-04-03T14:28:22.756Z,95293.44
2023-04-03T14:30:52.558Z,95291.19
2023-04-03T14:33:22.701Z,95242.66
2023-04-03T14:35:50.490Z,95265.03
2023-04-03T14:38:23.492Z,95284.31
2023-04-03T14:40:52.065Z,95323.41
2023-04-03T14:43:21.098Z,95310.28
2023-04-03T14:45:49.277Z,95303.63
2023-04-03T14:48:26.661Z,95293.88
2023-04-03T14:51:04.625Z,95300.25
2023-04-03T14:53:38.910Z,95298.53
2023-04-03T14:56:13.129Z,95297.28
2023-04-03T14:58:39.861Z,95321.53
2023-04-03T15:01:06.671Z,95288.84
2023-04-03T15:03:33.795Z,95286.81
2023-04-03T15:06:01.138Z,95312.16
2023-04-03T15:08:30.626Z,95294.41
2023-04-03T15:10:57.549Z,95304.44
2023-04-03T15:13:26.308Z,95304.19
2023-04-03T15:15:53.727Z,95328.09
2023-04-03T15:18:29.101Z,95330.66
2023-04-03T15:20:57.812Z,95324.53
2023-04-03T15:23:29.379Z,95345.91
2023-04-03T15:25:56.550Z,95326.28
2023-04-03T15:28:30.977Z,95339.31
2023-04-03T15:30:58.496Z,95313.28
2023-04-03T15:33:26.542Z,95337.47
2023-04-03T15:35:55.817Z,95322.03
2023-04-03T15:38:23.060Z,95359.22
2023-04-03T15:40:50.704Z,95335.03
2023-04-03T15:43:18.111Z,95351.66
2023-04-03T15:45:45.463Z,95345.69
2023-04-03T15:48:13.125Z,95325.59
2023-04-03T15:50:40.930Z,95343.78
2023-04-03T15:53:08.453Z,95334.81
2023-04-03T15:55:38.298Z,95345.97
2023-04-03T15:58:06.087Z,95318.06
2023-04-03T16:00:33.258Z,95328.13
2023-04-03T16:03:09.470Z,95310.19
2023-04-03T16:05:38.808Z,95338.53
2023-04-03T16:08:07.682Z,95322.59
2023-04-03T16:10:36.805Z,95319.38
2023-04-03T16:13:05.365Z,95333.69
2023-04-03T16:15:33.873Z,95334.47
2023-04-03T16:18:02.183Z,95320.44
2023-04-03T16:20:29.492Z,95335.06
2023-04-03T16:22:59.157Z,95324.88
2023-04-03T16:25:25.993Z,95329.16
2023-04-03T16:27:53.621Z,95310.72
2023-04-03T16:30:21.405Z,95320.97
2023-04-03T16:32:48.297Z,95324.09
2023-04-03T16:35:15.300Z,95301.22
2023-04-03T16:37:42.172Z,95287.47
2023-04-03T16:40:09.890Z,95253.66
2023-04-03T16:42:37.959Z,95270.47
2023-04-03T16:45:07.149Z,95285.28
2023-04-03T16:47:34.231Z,95248.94
2023-04-03T16:50:01.425Z,95241.63
2023-04-03T16:52:28.446Z,95252.94
2023-04-03T16:54:56.704Z,95242.06
2023-04-03T16:57:25.840Z,95273.13
2023-04-03T16:59:54.000Z,95273.16
2023-04-03T17:02:25.829Z,95303.97
2023-04-03T17:04:53.856Z,95322.34
2023-04-03T17:07:22.557Z,95278.22
2023-04-03T17:09:49.887Z,95307.53
2023-04-03T17:12:17.512Z,95258.31
2023-04-03T17:14:44.631Z,95239.06
2023-04-03T17:17:11.475Z,95245.25
2023-04-03T17:19:39.434Z,95296.00
2023-04-03T17:22:06.865Z,95295.41
2023-04-03T17:24:34.544Z,95314.72
2023-04-03T17:27:01.929Z,95316.44
2023-04-03T17:29:28.835Z,95340.56
2023-04-03T17:31:55.837Z,95295.47
2023-04-03T17:34:22.786Z,95287.25
2023-04-03T17:36:49.674Z,95290.34
2023-04-03T17:39:16.690Z,95322.38
2023-04-03T17:41:45.975Z,95310.41
2023-04-03T17:44:13.319Z,95322.84
2023-04-03T17:46:40.689Z,95323.63
2023-04-03T17:49:07.738Z,95356.66
2023-04-03T17:51:34.678Z,95367.38
2023-04-03T17:54:02.551Z,95374.63
2023-04-03T17:56:29.356Z,95371.06
2023-04-03T17:58:58.516Z,95379.66
2023-04-03T18:01:28.562Z,95391.72
2023-04-03T18:03:57.423Z,95393.31
2023-04-03T18:06:28.074Z,95392.41
2023-04-03T18:08:58.975Z,95405.75
2023-04-03T18:11:28.506Z,95393.22
2023-04-03T18:14:00.177Z,95397.94
2023-04-03T18:16:28.082Z,95387.88
2023-04-03T18:19:06.802Z,95393.47
2023-04-03T18:21:42.054Z,95411.16
2023-04-03T18:24:13.350Z,95389.22
2023-04-03T18:26:43.475Z,95423.47
2023-04-03T18:29:11.969Z,95410.06
2023-04-03T18:31:41.908Z,95397.22
2023-04-03T18:34:08.713Z,95405.59
2023-04-03T18:36:35.638Z,95401.63
2023-04-03T18:39:03.839Z,95391.16
2023-04-03T18:41:33.849Z,95408.47
2023-04-03T18:44:03.883Z,95399.94
2023-04-03T18:46:32.781Z,95387.56
2023-04-03T18:48:59.822Z,95378.91
2023-04-03T18:51:27.565Z,95405.53
2023-04-03T18:53:54.441Z,95410.81
2023-04-03T18:56:23.011Z,95440.91
2023-04-03T18:58:49.889Z,95427.63
2023-04-03T19:01:17.171Z,95416.34
2023-04-03T19:03:44.263Z,95404.31
2023-04-03T19:06:11.434Z,95404.84
2023-04-03T19:08:38.495Z,95422.09
2023-04-03T19:11:05.268Z,95413.22
2023-04-03T19:13:32.662Z,95405.16
2023-04-03T19:16:00.083Z,95410.19
2023-04-03T19:18:27.774Z,95420.81
2023-04-03T19:20:56.354Z,95427.16
2023-04-03T19:23:24.491Z,95414.63
2023-04-03T19:26:01.928Z,95424.41
2023-04-03T19:28:29.272Z,95403.47
2023-04-03T19:30:57.976Z,95414.06
2023-04-03T19:33:25.295Z,95411.88
2023-04-03T19:35:53.104Z,95421.34
2023-04-03T19:38:20.092Z,95394.50
2023-04-03T19:40:47.461Z,95422.16
2023-04-03T19:43:16.887Z,95404.59
2023-04-03T19:45:46.178Z,95390.03
2023-04-03T19:48:13.710Z,95415.72
2023-04-03T19:50:40.886Z,95426.38
2023-04-03T19:53:09.851Z,95427.97
2023-04-03T19:55:37.593Z,95423.56
2023-04-03T19:58:04.749Z,95445.97
2023-04-03T20:00:32.239Z,95431.16
2023-04-03T20:02:59.202Z,95436.84
2023-04-03T20:05:26.241Z,95423.72
2023-04-03T20:07:53.740Z,95431.09
2023-04-03T20:10:20.715Z,95455.34
2023-04-03T20:12:47.938Z,95449.69
2023-04-03T20:15:14.762Z,95455.25
2023-04-03T20:17:42.166Z,95448.38
2023-04-03T20:20:09.945Z,95450.16
2023-04-03T20:22:38.680Z,95452.53
2023-04-03T20:25:09.399Z,95453.53
2023-04-03T20:27:36.736Z,95440.38
2023-04-03T20:30:08.853Z,95446.66
2023-04-03T20:32:35.936Z,95455.78
2023-04-03T20:35:04.572Z,95459.41
2023-04-03T20:37:32.661Z,95457.34
2023-04-03T20:39:59.539Z,95467.81
2023-04-03T20:42:26.852Z,95454.38
2023-04-03T20:44:57.310Z,95451.53
2023-04-03T20:47:24.361Z,95441.03
2023-04-03T20:49:53.903Z,95449.19
2023-04-03T20:52:20.865Z,95441.25
2023-04-03T20:54:48.013Z,95472.38
2023-04-03T20:57:15.520Z,95454.84
2023-04-03T20:59:42.691Z,95428.56
2023-04-03T21:02:09.476Z,95426.19
2023-04-03T21:04:48.695Z,95436.78
2023-04-03T21:07:53.390Z,95443.59
2023-04-03T21:10:57.562Z,95450.78
2023-04-03T21:14:01.888Z,95452.94
2023-04-03T21:16:28.564Z,95456.47
2023-04-03T21:19:20.051Z,95453.59
2023-04-03T21:21:47.238Z,95461.59
2023-04-03T21:24:17.085Z,95456.63
2023-04-03T21:26:44.273Z,95458.06
2023-04-03T21:29:11.567Z,95451.59
2023-04-03T21:31:47.234Z,95460.53
2023-04-03T21:34:18.480Z,95446.16
2023-04-03T21:36:45.699Z,95437.91
2023-04-03T21:39:12.853Z,95441.47
2023-04-03T21:41:39.680Z,95422.66
2023-04-03T21:44:07.499Z,95414.34
2023-04-03T21:46:34.521Z,95433.50
2023-04-03T21:49:01.469Z,95424.03
2023-04-03T21:51:28.947Z,95410.69
2023-04-03T21:53:56.505Z,95422.22
2023-04-03T21:56:24.426Z,95407.84
2023-04-03T21:58:52.069Z,95399.56
2023-04-03T22:01:20.218Z,95394.25
2023-04-03T22:03:47.423Z,95398.31
2023-04-03T22:06:16.479Z,95395.47
2023-04-03T22:08:44.207Z,95376.41
2023-04-03T22:11:14.045Z,95380.75
2023-04-03T22:13:41.920Z,95384.53
2023-04-03T22:16:11.309Z,95372.19
2023-04-03T22:18:39.910Z,95377.59
2023-04-03T22:21:08.653Z,95366.91
2023-04-03T22:23:35.856Z,95377.13
2023-04-03T22:26:05.856Z,95361.50
2023-04-03T22:28:35.413Z,95355.22
2023-04-03T22:31:09.056Z,95342.66
2023-04-03T22:33:39.900Z,95355.13
2023-04-03T22:36:09.916Z,95353.97
2023-04-03T22:38:37.581Z,95350.81
2023-04-03T22:41:06.508Z,95334.41
2023-04-03T22:43:36.359Z,95356.59
2023-04-03T22:46:05.371Z,95351.97
2023-04-03T22:48:32.124Z,95337.09
2023-04-03T22:51:02.446Z,95338.44
2023-04-03T22:53:29.327Z,95350.19
2023-04-03T22:56:00.146Z,95348.16
2023-04-03T22:58:27.985Z,95348.38
2023-04-03T23:01:08.382Z,95353.63
2023-04-03T23:03:36.609Z,95362.22
2023-04-03T23:06:05.047Z,95351.66
2023-04-03T23:08:34.544Z,95347.91
2023-04-03T23:11:02.383Z,95333.47
2023-04-03T23:13:29.882Z,95354.97
2023-04-03T23:15:57.899Z,95340.53
2023-04-03T23:18:26.152Z,95320.38
2023-04-03T23:20:55.360Z,95351.94
2023-04-03T23:23:24.546Z,95340.41
2023-04-03T23:25:52.922Z,95324.94
2023-04-03T23:28:20.271Z,95334.16
2023-04-03T23:30:47.520Z,95329.59
2023-04-03T23:33:14.540Z,95330.72
2023-04-03T23:35:48.203Z,95322.09
2023-04-03T23:38:15.863Z,95323.84
2023-04-03T23:40:43.056Z,95321.53
2023-04-03T23:43:11.185Z,95323.06
2023-04-03T23:45:38.428Z,95323.03
2023-04-03T23:48:06.233Z,95325.94
2023-04-03T23:50:33.478Z,95300.97
2023-04-03T23:53:00.985Z,95298.13
2023-04-03T23:55:27.811Z,95311.03
2023-04-03T23:57:54.863Z,95303.72
